createdAt,value
2022-09-21T00:01:40.005Z,8.96
2022-09-21T00:04:08.325Z,8.90
2022-09-21T00:06:37.315Z,8.87
2022-09-21T00:09:08.070Z,8.82
2022-09-21T00:11:37.686Z,8.79
2022-09-21T00:14:10.996Z,8.79
2022-09-21T00:16:40.626Z,8.77
2022-09-21T00:19:09.709Z,8.75
2022-09-21T00:21:39.194Z,8.66
2022-09-21T00:24:08.738Z,8.63
2022-09-21T00:26:37.136Z,8.61
2022-09-21T00:29:07.222Z,8.57
2022-09-21T00:31:36.044Z,8.53
2022-09-21T00:34:07.757Z,8.53
2022-09-21T00:36:36.258Z,8.49
2022-09-21T00:39:04.886Z,8.45
2022-09-21T00:41:34.826Z,8.45
2022-09-21T00:44:30.862Z,8.41
2022-09-21T00:47:04.739Z,8.39
2022-09-21T00:49:35.703Z,8.34
2022-09-21T00:52:06.575Z,8.31
2022-09-21T00:54:40.383Z,8.31
2022-09-21T00:57:09.730Z,8.25
2022-09-21T00:59:40.832Z,8.21
2022-09-21T01:02:09.607Z,8.20
2022-09-21T01:04:39.623Z,8.19
2022-09-21T01:07:12.862Z,8.17
2022-09-21T01:09:43.502Z,8.16
2022-09-21T01:12:31.158Z,8.14
2022-09-21T01:15:19.726Z,8.12
2022-09-21T01:17:56.427Z,8.06
2022-09-21T01:20:46.910Z,8.00
2022-09-21T01:24:06.535Z,7.98
2022-09-21T01:26:59.183Z,7.96
2022-09-21T01:29:32.634Z,7.95
2022-09-21T01:32:08.374Z,7.93
2022-09-21T01:34:43.469Z,7.90
2022-09-21T01:37:16.999Z,7.83
2022-09-21T01:39:49.544Z,7.79
2022-09-21T01:42:20.458Z,7.78
2022-09-21T01:44:51.938Z,7.75
2022-09-21T01:47:20.933Z,7.72
2022-09-21T01:49:55.018Z,7.70
2022-09-21T01:52:29.363Z,7.68
2022-09-21T01:55:04.890Z,7.65
2022-09-21T01:57:41.512Z,7.64
2022-09-21T02:00:12.920Z,7.62
2022-09-21T02:02:50.072Z,7.60
2022-09-21T02:05:21.241Z,7.60
2022-09-21T02:07:51.507Z,7.57
2022-09-21T02:10:28.542Z,7.53
2022-09-21T02:13:01.347Z,7.49
2022-09-21T02:15:38.574Z,7.43
2022-09-21T02:18:15.069Z,7.40
2022-09-21T02:20:54.512Z,7.38
2022-09-21T02:23:29.464Z,7.36
2022-09-21T02:26:00.843Z,7.32
2022-09-21T02:28:40.871Z,7.34
2022-09-21T02:31:17.867Z,7.33
2022-09-21T02:33:59.284Z,7.29
2022-09-21T02:36:33.794Z,7.27
2022-09-21T02:39:09.132Z,7.24
2022-09-21T02:41:42.161Z,7.23
2022-09-21T02:44:14.268Z,7.21
2022-09-21T02:46:54.218Z,7.15
2022-09-21T02:49:27.752Z,7.10
2022-09-21T02:52:01.981Z,7.06
2022-09-21T02:54:33.728Z,7.05
2022-09-21T02:57:03.942Z,7.02
2022-09-21T02:59:32.838Z,7.01
2022-09-21T03:02:02.630Z,6.99
2022-09-21T03:04:30.897Z,6.94
2022-09-21T03:06:59.362Z,6.95
2022-09-21T03:09:27.611Z,6.92
2022-09-21T03:11:55.925Z,6.90
2022-09-21T03:14:24.259Z,6.89
2022-09-21T03:16:52.596Z,6.90
2022-09-21T03:19:22.308Z,6.92
2022-09-21T03:21:50.810Z,6.88
2022-09-21T03:24:39.596Z,6.88
2022-09-21T03:27:09.203Z,6.82
2022-09-21T03:29:38.439Z,6.84
2022-09-21T03:32:07.272Z,6.85
2022-09-21T03:34:37.123Z,6.83
2022-09-21T03:37:07.696Z,6.77
2022-09-21T03:39:36.636Z,6.74
2022-09-21T03:42:05.685Z,6.73
2022-09-21T03:44:33.974Z,6.71
2022-09-21T03:47:02.257Z,6.72
2022-09-21T03:49:31.044Z,6.69
2022-09-21T03:52:01.162Z,6.64
2022-09-21T03:54:29.466Z,6.59
2022-09-21T03:56:57.747Z,6.56
2022-09-21T03:59:26.052Z,6.52
2022-09-21T04:01:54.438Z,6.51
2022-09-21T04:04:22.729Z,6.49
2022-09-21T04:06:51.072Z,6.47
2022-09-21T04:09:20.828Z,6.43
2022-09-21T04:11:49.181Z,6.41
2022-09-21T04:14:17.587Z,6.38
2022-09-21T04:16:45.975Z,6.36
2022-09-21T04:19:14.288Z,6.34
2022-09-21T04:21:42.514Z,6.30
2022-09-21T04:24:10.913Z,6.30
2022-09-21T04:26:41.071Z,6.29
2022-09-21T04:29:15.071Z,6.24
2022-09-21T04:31:43.884Z,6.22
2022-09-21T04:34:15.139Z,6.18
2022-09-21T04:36:43.599Z,6.16
2022-09-21T04:39:11.892Z,6.16
2022-09-21T04:41:42.104Z,6.11
2022-09-21T04:44:10.446Z,6.09
2022-09-21T04:46:38.813Z,6.07
2022-09-21T04:49:07.243Z,6.06
2022-09-21T04:51:35.661Z,6.03
2022-09-21T04:54:04.728Z,6.01
2022-09-21T04:56:33.130Z,5.98
2022-09-21T04:59:02.761Z,5.97
2022-09-21T05:01:31.223Z,5.96
2022-09-21T05:04:01.797Z,5.94
2022-09-21T05:06:30.480Z,5.96
2022-09-21T05:09:16.679Z,5.94
2022-09-21T05:11:44.994Z,5.95
2022-09-21T05:14:15.016Z,5.95
2022-09-21T05:16:43.284Z,5.95
2022-09-21T05:19:11.731Z,5.96
2022-09-21T05:21:40.079Z,5.95
2022-09-21T05:24:08.849Z,5.93
2022-09-21T05:26:37.180Z,5.94
2022-09-21T05:29:06.620Z,5.93
2022-09-21T05:31:44.410Z,5.91
2022-09-21T05:34:44.529Z,5.90
2022-09-21T05:37:36.252Z,5.91
2022-09-21T05:40:06.955Z,5.89
2022-09-21T05:42:36.264Z,5.88
2022-09-21T05:45:06.438Z,5.90
2022-09-21T05:47:41.028Z,5.90
2022-09-21T05:50:29.216Z,5.89
2022-09-21T05:53:14.239Z,5.90
2022-09-21T05:55:53.507Z,5.92
2022-09-21T05:58:34.237Z,5.97
2022-09-21T06:01:29.327Z,5.94
2022-09-21T06:04:01.421Z,5.97
2022-09-21T06:06:29.826Z,5.97
2022-09-21T06:08:58.176Z,5.98
2022-09-21T06:11:26.457Z,6.00
2022-09-21T06:13:54.816Z,6.00
2022-09-21T06:16:23.199Z,6.02
2022-09-21T06:18:51.504Z,5.98
2022-09-21T06:21:21.130Z,6.01
2022-09-21T06:23:49.591Z,6.00
2022-09-21T06:26:17.968Z,5.96
2022-09-21T06:28:46.357Z,5.98
2022-09-21T06:31:14.666Z,5.96
2022-09-21T06:33:47.415Z,5.98
2022-09-21T06:36:18.434Z,5.96
2022-09-21T06:38:48.070Z,5.98
2022-09-21T06:41:21.023Z,5.99
2022-09-21T06:43:49.825Z,5.99
2022-09-21T06:46:18.114Z,6.02
2022-09-21T06:48:46.444Z,6.04
2022-09-21T06:51:14.686Z,6.06
2022-09-21T06:53:43.115Z,6.10
2022-09-21T06:56:12.728Z,6.13
2022-09-21T06:58:41.226Z,6.16
2022-09-21T07:01:11.836Z,6.21
2022-09-21T07:03:42.187Z,6.24
2022-09-21T07:06:14.274Z,6.27
2022-09-21T07:11:33.876Z,6.33
2022-09-21T07:14:03.978Z,6.36
2022-09-21T07:16:33.553Z,6.39
2022-09-21T07:19:10.905Z,6.42
2022-09-21T07:21:40.224Z,6.46
2022-09-21T07:24:12.257Z,6.48
2022-09-21T07:26:42.425Z,6.51
2022-09-21T07:29:10.843Z,6.54
2022-09-21T07:31:39.511Z,6.58
2022-09-21T07:34:08.028Z,6.64
2022-09-21T07:36:36.411Z,6.66
2022-09-21T07:39:05.524Z,6.70
2022-09-21T07:41:33.855Z,6.74
2022-09-21T07:44:04.286Z,6.79
2022-09-21T07:46:32.982Z,6.83
2022-09-21T07:49:01.243Z,6.89
2022-09-21T07:51:29.624Z,6.96
2022-09-21T07:53:58.331Z,7.01
2022-09-21T07:56:27.047Z,7.02
2022-09-21T07:59:06.918Z,7.06
2022-09-21T08:01:38.383Z,7.13
2022-09-21T08:04:08.680Z,7.19
2022-09-21T08:06:40.109Z,7.27
2022-09-21T08:09:09.361Z,7.32
2022-09-21T08:11:39.036Z,7.36
2022-09-21T08:14:07.470Z,7.42
2022-09-21T08:16:39.709Z,7.49
2022-09-21T08:19:08.194Z,7.51
2022-09-21T08:21:36.562Z,7.58
2022-09-21T08:24:05.183Z,7.64
2022-09-21T08:26:33.604Z,7.68
2022-09-21T08:29:02.743Z,7.73
2022-09-21T08:31:31.322Z,7.80
2022-09-21T08:34:01.386Z,7.87
2022-09-21T08:36:29.837Z,7.96
2022-09-21T08:38:58.350Z,7.97
2022-09-21T08:41:46.375Z,8.02
2022-09-21T08:44:20.104Z,8.09
2022-09-21T08:46:56.252Z,8.17
2022-09-21T08:49:29.554Z,8.22
2022-09-21T08:52:03.472Z,8.27
2022-09-21T08:54:40.207Z,8.36
2022-09-21T08:57:13.161Z,8.43
2022-09-21T08:59:46.070Z,8.49
2022-09-21T09:02:37.806Z,8.63
2022-09-21T09:05:29.351Z,8.64
2022-09-21T09:08:24.353Z,8.65
2022-09-21T09:11:06.893Z,8.70
2022-09-21T09:14:00.411Z,8.87
2022-09-21T09:16:38.497Z,9.01
2022-09-21T09:19:21.605Z,9.09
2022-09-21T09:21:51.755Z,9.16
2022-09-21T09:24:33.822Z,9.22
2022-09-21T09:27:07.409Z,9.28
2022-09-21T09:29:46.687Z,9.33
2022-09-21T09:32:18.635Z,9.38
2022-09-21T09:34:56.050Z,9.45
2022-09-21T09:37:32.394Z,9.52
2022-09-21T09:40:02.350Z,9.56
2022-09-21T09:42:46.549Z,9.62
2022-09-21T09:45:47.147Z,9.69
2022-09-21T09:49:02.121Z,9.78
2022-09-21T09:51:31.031Z,9.85
2022-09-21T09:54:05.855Z,9.90
2022-09-21T09:56:38.167Z,9.95
2022-09-21T09:59:15.915Z,10.00
2022-09-21T10:01:47.315Z,10.07
2022-09-21T10:04:18.628Z,10.21
2022-09-21T10:06:47.250Z,10.30
2022-09-21T10:09:27.536Z,10.36
2022-09-21T10:12:00.404Z,10.57
2022-09-21T10:14:34.264Z,10.69
2022-09-21T10:17:07.919Z,10.82
2022-09-21T10:19:38.089Z,10.87
2022-09-21T10:22:07.036Z,10.93
2022-09-21T10:24:40.674Z,10.95
2022-09-21T10:27:15.230Z,11.16
2022-09-21T10:29:46.053Z,11.24
2022-09-21T10:32:24.389Z,11.19
2022-09-21T10:35:16.238Z,11.25
2022-09-21T10:37:48.343Z,11.33
2022-09-21T10:40:30.758Z,11.38
2022-09-21T10:43:01.501Z,11.37
2022-09-21T10:45:31.628Z,11.33
2022-09-21T10:48:09.103Z,11.29
2022-09-21T10:50:41.632Z,11.29
2022-09-21T10:53:22.665Z,11.27
2022-09-21T10:56:14.960Z,11.27
2022-09-21T10:59:13.658Z,11.25
2022-09-21T11:01:46.964Z,11.29
2022-09-21T11:04:37.310Z,11.27
2022-09-21T11:07:15.811Z,11.28
2022-09-21T11:09:58.004Z,11.28
2022-09-21T11:12:45.861Z,11.39
2022-09-21T11:15:29.071Z,11.51
2022-09-21T11:18:11.693Z,11.55
2022-09-21T11:20:48.638Z,11.63
2022-09-21T11:23:38.061Z,11.62
2022-09-21T11:26:13.811Z,11.67
2022-09-21T11:28:50.620Z,11.75
2022-09-21T11:31:49.721Z,11.77
2022-09-21T11:34:54.632Z,11.82
2022-09-21T11:37:39.203Z,11.90
2022-09-21T11:40:31.695Z,11.98
2022-09-21T11:43:14.553Z,12.15
2022-09-21T11:45:58.921Z,12.33
2022-09-21T11:48:48.275Z,12.47
2022-09-21T11:51:39.421Z,12.47
2022-09-21T11:54:57.531Z,12.46
2022-09-21T11:57:32.044Z,12.51
2022-09-21T12:00:16.197Z,12.66
2022-09-21T12:03:28.811Z,12.79
2022-09-21T12:06:19.116Z,12.80
2022-09-21T12:09:12.217Z,12.82
2022-09-21T12:11:48.656Z,13.09
2022-09-21T12:14:26.266Z,13.37
2022-09-21T12:17:05.669Z,13.65
2022-09-21T12:19:46.987Z,13.73
2022-09-21T12:22:20.065Z,13.70
2022-09-21T12:24:52.928Z,13.61
2022-09-21T12:27:29.445Z,13.57
2022-09-21T12:30:03.844Z,13.50
2022-09-21T12:32:50.097Z,13.55
2022-09-21T12:35:29.612Z,13.74
2022-09-21T12:38:05.245Z,13.90
2022-09-21T12:40:42.427Z,13.94
2022-09-21T12:43:24.032Z,13.86
2022-09-21T12:45:59.418Z,13.80
2022-09-21T12:48:33.903Z,13.79
2022-09-21T12:51:13.383Z,13.88
2022-09-21T12:53:50.413Z,14.17
2022-09-21T12:56:33.361Z,14.59
2022-09-21T12:59:18.344Z,15.06
2022-09-21T13:01:57.388Z,15.38
2022-09-21T13:04:50.601Z,15.78
2022-09-21T13:08:03.310Z,16.11
2022-09-21T13:10:54.686Z,16.03
2022-09-21T13:13:34.306Z,16.13
2022-09-21T13:16:04.490Z,16.35
2022-09-21T13:18:36.829Z,16.68
2022-09-21T13:21:18.571Z,16.96
2022-09-21T13:23:58.900Z,17.33
2022-09-21T13:26:36.787Z,17.58
2022-09-21T13:29:29.758Z,17.92
2022-09-21T13:32:00.902Z,18.10
2022-09-21T13:34:36.058Z,18.35
2022-09-21T13:37:34.509Z,18.29
2022-09-21T13:40:41.163Z,18.37
2022-09-21T13:43:46.366Z,18.20
2022-09-21T13:46:48.767Z,18.37
2022-09-21T13:49:34.714Z,18.67
2022-09-21T13:52:07.308Z,18.77
2022-09-21T13:54:46.947Z,18.99
2022-09-21T13:57:22.842Z,19.28
2022-09-21T14:00:10.465Z,19.49
2022-09-21T14:02:43.915Z,19.85
2022-09-21T14:05:27.821Z,19.81
2022-09-21T14:07:59.792Z,19.59
2022-09-21T14:10:32.294Z,19.50
2022-09-21T14:13:03.664Z,19.68
2022-09-21T14:15:39.770Z,19.90
2022-09-21T14:18:47.590Z,20.07
2022-09-21T14:21:20.284Z,20.28
2022-09-21T14:24:21.467Z,20.32
2022-09-21T14:27:07.116Z,20.01
2022-09-21T14:29:45.734Z,19.86
2022-09-21T14:32:20.377Z,20.03
2022-09-21T14:34:56.558Z,20.23
2022-09-21T14:37:33.110Z,20.47
2022-09-21T14:40:20.679Z,20.70
2022-09-21T14:42:50.887Z,20.94
2022-09-21T14:45:25.947Z,21.11
2022-09-21T14:48:07.673Z,20.82
2022-09-21T14:50:41.847Z,20.52
2022-09-21T14:53:54.183Z,20.05
2022-09-21T14:56:44.354Z,19.83
2022-09-21T14:59:35.664Z,20.02
2022-09-21T15:02:19.946Z,20.27
2022-09-21T15:05:01.853Z,20.56
2022-09-21T15:08:01.555Z,20.73
2022-09-21T15:10:55.029Z,20.93
2022-09-21T15:13:48.714Z,21.12
2022-09-21T15:16:29.298Z,21.15
2022-09-21T15:19:17.342Z,21.32
2022-09-21T15:21:48.046Z,21.43
2022-09-21T15:24:25.975Z,21.47
2022-09-21T15:27:04.417Z,21.56
2022-09-21T15:29:34.975Z,21.64
2022-09-21T15:32:03.935Z,21.72
2022-09-21T15:34:34.055Z,21.80
2022-09-21T15:37:16.920Z,21.95
2022-09-21T15:39:45.299Z,22.09
2022-09-21T15:42:23.504Z,22.12
2022-09-21T15:45:06.450Z,22.30
2022-09-21T15:47:35.507Z,22.23
2022-09-21T15:50:08.288Z,22.30
2022-09-21T15:52:43.094Z,22.32
2022-09-21T15:55:15.619Z,22.31
2022-09-21T15:57:45.150Z,22.44
2022-09-21T16:00:24.649Z,22.52
2022-09-21T16:03:07.607Z,22.60
2022-09-21T16:05:47.803Z,22.63
2022-09-21T16:08:30.059Z,22.56
2022-09-21T16:11:18.844Z,22.57
2022-09-21T16:14:06.330Z,22.46
2022-09-21T16:17:13.342Z,22.33
2022-09-21T16:19:43.138Z,22.41
2022-09-21T16:22:23.113Z,22.32
2022-09-21T16:24:54.731Z,22.15
2022-09-21T16:27:26.268Z,22.10
2022-09-21T16:29:57.273Z,22.08
2022-09-21T16:32:32.594Z,22.05
2022-09-21T16:35:32.632Z,21.94
2022-09-21T16:38:02.392Z,22.04
2022-09-21T16:40:31.024Z,21.90
2022-09-21T16:42:59.927Z,21.76
2022-09-21T16:45:31.604Z,21.58
2022-09-21T16:48:00.458Z,21.46
2022-09-21T16:50:28.841Z,21.28
2022-09-21T16:52:57.160Z,21.13
2022-09-21T16:55:29.315Z,20.95
2022-09-21T16:58:00.287Z,20.82
2022-09-21T17:00:32.634Z,20.70
2022-09-21T17:03:02.288Z,20.56
2022-09-21T17:05:30.547Z,20.42
2022-09-21T17:08:00.339Z,20.28
2022-09-21T17:10:35.393Z,20.14
2022-09-21T17:13:04.385Z,20.08
2022-09-21T17:15:33.871Z,19.98
2022-09-21T17:18:02.176Z,19.86
2022-09-21T17:20:36.400Z,19.71
2022-09-21T17:23:04.972Z,19.61
2022-09-21T17:25:36.219Z,19.51
2022-09-21T17:28:13.674Z,19.39
2022-09-21T17:30:45.111Z,19.27
2022-09-21T17:33:13.700Z,19.14
2022-09-21T17:35:42.967Z,19.03
2022-09-21T17:38:14.492Z,18.91
2022-09-21T17:40:46.975Z,18.79
2022-09-21T17:43:36.173Z,18.66
2022-09-21T17:46:11.328Z,18.60
2022-09-21T17:48:41.811Z,18.47
2022-09-21T17:51:11.874Z,18.39
2022-09-21T17:53:41.697Z,18.29
2022-09-21T17:56:32.705Z,18.19
2022-09-21T17:59:04.397Z,18.08
2022-09-21T18:01:35.966Z,17.96
2022-09-21T18:04:05.716Z,17.84
2022-09-21T18:06:35.408Z,17.80
2022-09-21T18:09:05.425Z,17.68
2022-09-21T18:12:01.722Z,17.53
2022-09-21T18:14:41.321Z,17.43
2022-09-21T18:17:33.149Z,17.32
2022-09-21T18:20:20.421Z,17.22
2022-09-21T18:22:59.540Z,17.11
2022-09-21T18:25:33.111Z,17.05
2022-09-21T18:28:13.213Z,16.96
2022-09-21T18:30:51.719Z,16.87
2022-09-21T18:33:28.138Z,16.78
2022-09-21T18:36:07.934Z,16.74
2022-09-21T18:38:42.776Z,16.66
2022-09-21T18:41:21.380Z,16.58
2022-09-21T18:44:05.552Z,16.50
2022-09-21T18:46:48.699Z,16.41
2022-09-21T18:49:30.190Z,16.31
2022-09-21T18:52:10.953Z,16.22
2022-09-21T18:54:40.512Z,16.12
2022-09-21T18:57:15.048Z,16.05
2022-09-21T18:59:45.859Z,15.98
2022-09-21T19:02:19.675Z,15.90
2022-09-21T19:04:49.640Z,15.86
2022-09-21T19:07:28.293Z,15.77
2022-09-21T19:10:08.889Z,15.71
2022-09-21T19:13:05.948Z,15.65
2022-09-21T19:16:00.226Z,15.59
2022-09-21T19:18:40.555Z,15.55
2022-09-21T19:21:26.700Z,15.48
2022-09-21T19:24:07.907Z,15.41
2022-09-21T19:26:46.841Z,15.35
2022-09-21T19:29:47.024Z,15.27
2022-09-21T19:32:20.427Z,15.20
2022-09-21T19:34:49.180Z,15.10
2022-09-21T19:37:17.924Z,15.01
2022-09-21T19:39:46.794Z,14.92
2022-09-21T19:42:30.223Z,14.88
2022-09-21T19:45:10.130Z,14.86
2022-09-21T19:47:45.530Z,14.80
2022-09-21T19:50:21.487Z,14.68
2022-09-21T19:52:52.377Z,14.58
2022-09-21T19:55:40.486Z,14.49
2022-09-21T19:58:27.911Z,14.42
2022-09-21T20:00:57.856Z,14.33
2022-09-21T20:03:36.058Z,14.26
2022-09-21T20:06:11.934Z,14.18
2022-09-21T20:08:47.220Z,14.13
2022-09-21T20:11:22.423Z,14.08
2022-09-21T20:14:09.347Z,14.02
2022-09-21T20:16:48.025Z,13.95
2022-09-21T20:19:29.315Z,13.89
2022-09-21T20:22:04.912Z,13.82
2022-09-21T20:24:43.145Z,13.74
2022-09-21T20:27:25.255Z,13.65
2022-09-21T20:29:53.902Z,13.58
2022-09-21T20:32:23.507Z,13.50
2022-09-21T20:34:53.981Z,13.42
2022-09-21T20:37:23.661Z,13.33
2022-09-21T20:39:51.925Z,13.24
2022-09-21T20:42:23.525Z,13.13
2022-09-21T20:44:52.202Z,13.03
2022-09-21T20:47:21.611Z,12.98
2022-09-21T20:49:52.081Z,12.91
2022-09-21T20:52:20.802Z,12.85
2022-09-21T20:54:49.754Z,12.79
2022-09-21T20:57:20.095Z,12.72
2022-09-21T20:59:48.652Z,12.66
2022-09-21T21:02:17.619Z,12.62
2022-09-21T21:04:46.047Z,12.55
2022-09-21T21:07:15.665Z,12.51
2022-09-21T21:09:43.930Z,12.44
2022-09-21T21:12:13.069Z,12.37
2022-09-21T21:14:41.518Z,12.27
2022-09-21T21:17:09.806Z,12.20
2022-09-21T21:19:38.238Z,12.13
2022-09-21T21:22:06.535Z,12.06
2022-09-21T21:24:43.637Z,11.97
2022-09-21T21:27:16.506Z,11.93
2022-09-21T21:29:46.147Z,11.87
2022-09-21T21:32:15.474Z,11.83
2022-09-21T21:34:44.744Z,11.74
2022-09-21T21:37:16.439Z,11.68
2022-09-21T21:39:46.736Z,11.67
2022-09-21T21:42:15.359Z,11.66
2022-09-21T21:44:43.739Z,11.63
2022-09-21T21:47:35.106Z,11.60
2022-09-21T21:50:00.758Z,11.58
2022-09-21T21:52:29.125Z,11.54
2022-09-21T21:54:58.901Z,11.49
2022-09-21T21:57:27.166Z,11.50
2022-09-21T21:59:55.651Z,11.45
2022-09-21T22:02:24.337Z,11.37
2022-09-21T22:04:52.697Z,11.31
2022-09-21T22:07:20.993Z,11.24
2022-09-21T22:09:49.782Z,11.20
2022-09-21T22:12:19.546Z,11.19
2022-09-21T22:14:47.885Z,11.14
2022-09-21T22:17:16.181Z,11.07
2022-09-21T22:19:45.197Z,11.00
2022-09-21T22:22:13.560Z,10.95
2022-09-21T22:24:41.916Z,10.89
2022-09-21T22:27:10.290Z,10.81
2022-09-21T22:29:40.608Z,10.76
2022-09-21T22:32:08.968Z,10.68
2022-09-21T22:34:37.256Z,10.62
2022-09-21T22:37:05.727Z,10.60
2022-09-21T22:39:34.093Z,10.54
2022-09-21T22:42:02.455Z,10.50
2022-09-21T22:44:30.878Z,10.46
2022-09-21T22:47:00.637Z,10.45
2022-09-21T22:49:28.925Z,10.44
2022-09-21T22:51:57.261Z,10.37
2022-09-21T22:54:26.565Z,10.33
2022-09-21T22:56:54.839Z,10.31
2022-09-21T22:59:23.178Z,10.24
2022-09-21T23:01:51.506Z,10.19
2022-09-21T23:04:21.645Z,10.17
2022-09-21T23:06:50.191Z,10.13
2022-09-21T23:09:21.708Z,10.09
2022-09-21T23:11:53.365Z,10.05
2022-09-21T23:14:23.624Z,10.03
2022-09-21T23:16:53.009Z,9.97
2022-09-21T23:19:22.667Z,9.92
2022-09-21T23:21:52.954Z,9.89
2022-09-21T23:24:22.236Z,9.85
2022-09-21T23:26:51.603Z,9.82
2022-09-21T23:29:20.192Z,9.78
2022-09-21T23:31:49.096Z,9.74
2022-09-21T23:34:17.705Z,9.74
2022-09-21T23:36:47.556Z,9.67
2022-09-21T23:39:16.689Z,9.66
2022-09-21T23:41:45.364Z,9.61
2022-09-21T23:44:14.279Z,9.59
2022-09-21T23:46:42.998Z,9.54
2022-09-21T23:49:11.828Z,9.50
2022-09-21T23:51:40.624Z,9.49
2022-09-21T23:54:10.573Z,9.42
2022-09-21T23:56:39.038Z,9.35
2022-09-21T23:59:07.386Z,9.32
